createdAt,value
2018-01-22T00:00:27.935Z,1.90
2018-01-22T00:02:56.208Z,1.90
2018-01-22T00:05:24.452Z,1.90
2018-01-22T00:07:53.454Z,1.90
2018-01-22T00:10:22.477Z,1.80
2018-01-22T00:12:50.955Z,1.80
2018-01-22T00:15:19.217Z,1.90
2018-01-22T00:17:47.500Z,1.90
2018-01-22T00:20:15.719Z,1.90
2018-01-22T00:22:43.968Z,1.90
2018-01-22T00:25:12.254Z,1.90
2018-01-22T00:27:40.532Z,1.90
2018-01-22T00:30:08.763Z,1.90
2018-01-22T00:32:37.850Z,2.00
2018-01-22T00:35:06.082Z,1.90
2018-01-22T00:37:34.365Z,2.00
2018-01-22T00:40:02.603Z,2.00
2018-01-22T00:42:30.841Z,2.00
2018-01-22T00:44:59.131Z,2.00
2018-01-22T00:47:27.359Z,2.10
2018-01-22T00:49:55.634Z,2.10
2018-01-22T00:52:23.918Z,2.10
2018-01-22T00:54:52.189Z,2.20
2018-01-22T00:57:20.479Z,2.10
2018-01-22T00:59:48.753Z,2.10
2018-01-22T01:02:17.029Z,2.10
2018-01-22T01:04:45.299Z,2.10
2018-01-22T01:07:13.612Z,2.10
2018-01-22T01:09:41.875Z,2.10
2018-01-22T01:12:10.114Z,2.00
2018-01-22T01:14:38.704Z,2.10
2018-01-22T01:17:06.956Z,2.10
2018-01-22T01:19:35.995Z,2.10
2018-01-22T01:22:04.286Z,2.00
2018-01-22T01:24:32.554Z,2.10
2018-01-22T01:27:00.801Z,2.00
2018-01-22T01:29:29.335Z,2.00
2018-01-22T01:31:57.583Z,2.00
2018-01-22T01:34:25.871Z,2.10
2018-01-22T01:36:54.127Z,2.00
2018-01-22T01:39:22.374Z,2.00
2018-01-22T01:41:51.414Z,2.10
2018-01-22T01:44:19.658Z,2.10
2018-01-22T01:46:47.894Z,2.10
2018-01-22T01:49:16.204Z,2.10
2018-01-22T01:51:45.988Z,2.10
2018-01-22T01:54:14.204Z,2.10
2018-01-22T01:56:42.513Z,2.10
2018-01-22T01:59:11.019Z,2.20
2018-01-22T02:01:39.309Z,2.20
2018-01-22T02:04:07.546Z,2.20
2018-01-22T02:06:35.789Z,2.20
2018-01-22T02:09:04.128Z,2.10
2018-01-22T02:11:32.398Z,2.20
2018-01-22T02:14:00.640Z,2.20
2018-01-22T02:16:28.923Z,2.20
2018-01-22T02:18:57.232Z,2.20
2018-01-22T02:21:25.469Z,2.10
2018-01-22T02:23:53.787Z,2.10
2018-01-22T02:26:22.017Z,2.20
2018-01-22T02:28:50.294Z,2.20
2018-01-22T02:31:18.558Z,2.10
2018-01-22T02:33:46.847Z,2.20
2018-01-22T02:36:15.143Z,2.20
2018-01-22T02:38:43.433Z,2.20
2018-01-22T02:41:11.650Z,2.20
2018-01-22T02:43:40.653Z,2.30
2018-01-22T02:46:08.918Z,2.30
2018-01-22T02:48:37.905Z,2.30
2018-01-22T02:51:06.985Z,2.40
2018-01-22T02:53:35.206Z,2.30
2018-01-22T02:56:03.484Z,2.40
2018-01-22T02:58:31.745Z,2.40
2018-01-22T03:01:00.755Z,2.40
2018-01-22T03:03:29.005Z,2.40
2018-01-22T03:05:58.064Z,2.40
2018-01-22T03:08:26.319Z,2.40
2018-01-22T03:10:54.552Z,2.40
2018-01-22T03:13:23.548Z,2.40
2018-01-22T03:15:52.568Z,2.50
2018-01-22T03:18:21.487Z,2.40
2018-01-22T03:20:49.744Z,2.50
2018-01-22T03:23:18.074Z,2.50
2018-01-22T03:25:46.317Z,2.50
2018-01-22T03:28:14.560Z,2.50
2018-01-22T03:30:42.857Z,2.50
2018-01-22T03:33:11.138Z,2.50
2018-01-22T03:35:39.415Z,2.50
2018-01-22T03:38:07.674Z,2.50
2018-01-22T03:40:35.923Z,2.50
2018-01-22T03:43:05.660Z,2.50
2018-01-22T03:45:33.919Z,2.50
2018-01-22T03:48:03.031Z,2.40
2018-01-22T03:50:31.249Z,2.40
2018-01-22T03:52:59.503Z,2.40
2018-01-22T03:55:27.814Z,2.40
2018-01-22T03:57:56.086Z,2.40
2018-01-22T04:00:24.372Z,2.40
2018-01-22T04:02:52.611Z,2.40
2018-01-22T04:05:20.849Z,2.30
2018-01-22T04:07:49.933Z,2.30
2018-01-22T04:10:18.175Z,2.30
2018-01-22T04:12:46.460Z,2.30
2018-01-22T04:15:14.760Z,2.30
2018-01-22T04:17:43.034Z,2.30
2018-01-22T04:20:16.837Z,2.20
2018-01-22T04:22:46.586Z,2.20
2018-01-22T04:25:14.808Z,2.20
2018-01-22T04:27:43.114Z,2.20
2018-01-22T04:30:11.341Z,2.20
2018-01-22T04:32:39.633Z,2.20
2018-01-22T04:35:07.916Z,2.20
2018-01-22T04:37:36.187Z,2.20
2018-01-22T04:40:04.427Z,2.20
2018-01-22T04:42:32.667Z,2.10
2018-01-22T04:45:00.983Z,2.20
2018-01-22T04:47:29.212Z,2.20
2018-01-22T04:49:57.487Z,2.20
2018-01-22T04:52:25.776Z,2.20
2018-01-22T04:54:54.023Z,2.20
2018-01-22T04:57:22.329Z,2.20
2018-01-22T04:59:50.590Z,2.20
2018-01-22T05:02:18.874Z,2.20
2018-01-22T05:04:47.176Z,2.20
2018-01-22T05:07:15.442Z,2.20
2018-01-22T05:09:43.752Z,2.20
2018-01-22T05:12:12.748Z,2.20
2018-01-22T05:14:41.080Z,2.20
2018-01-22T05:17:09.317Z,2.30
2018-01-22T05:19:38.247Z,2.30
2018-01-22T05:22:06.548Z,2.30
2018-01-22T05:24:34.824Z,2.30
2018-01-22T05:27:03.223Z,2.30
2018-01-22T05:29:32.229Z,2.20
2018-01-22T05:32:00.445Z,2.20
2018-01-22T05:34:28.740Z,2.10
2018-01-22T05:36:56.963Z,2.10
2018-01-22T05:39:25.272Z,2.00
2018-01-22T05:41:53.557Z,2.10
2018-01-22T05:44:21.850Z,2.10
2018-01-22T05:46:50.089Z,2.10
2018-01-22T05:49:18.377Z,2.10
2018-01-22T05:51:46.698Z,2.10
2018-01-22T05:54:14.901Z,2.20
2018-01-22T05:56:43.205Z,2.20
2018-01-22T05:59:11.439Z,2.10
2018-01-22T06:01:40.030Z,2.10
2018-01-22T06:04:09.028Z,2.10
2018-01-22T06:06:37.259Z,2.10
2018-01-22T06:09:05.612Z,2.10
2018-01-22T06:11:33.897Z,2.10
2018-01-22T06:14:02.192Z,2.10
2018-01-22T06:16:30.467Z,2.10
2018-01-22T06:18:59.039Z,2.10
2018-01-22T06:21:27.294Z,2.20
2018-01-22T06:23:55.577Z,2.20
2018-01-22T06:26:24.680Z,2.20
2018-01-22T06:28:52.970Z,2.20
2018-01-22T06:31:21.628Z,2.10
2018-01-22T06:33:49.924Z,2.10
2018-01-22T06:36:18.160Z,2.20
2018-01-22T06:38:46.458Z,2.20
2018-01-22T06:41:14.701Z,2.10
2018-01-22T06:43:43.728Z,2.20
2018-01-22T06:46:12.023Z,2.10
2018-01-22T06:48:40.268Z,2.10
2018-01-22T06:51:08.536Z,2.10
2018-01-22T06:53:36.788Z,2.00
2018-01-22T06:56:05.955Z,1.90
2018-01-22T06:58:34.197Z,1.80
2018-01-22T07:01:02.477Z,1.80
2018-01-22T07:03:30.723Z,1.80
2018-01-22T07:05:58.955Z,1.80
2018-01-22T07:08:27.260Z,1.80
2018-01-22T07:10:55.528Z,1.80
2018-01-22T07:13:23.764Z,1.90
2018-01-22T07:15:52.710Z,1.90
2018-01-22T07:18:20.989Z,1.80
2018-01-22T07:20:49.287Z,1.80
2018-01-22T07:23:18.293Z,1.90
2018-01-22T07:25:46.547Z,1.90
2018-01-22T07:28:15.561Z,1.80
2018-01-22T07:30:44.592Z,1.80
2018-01-22T07:33:12.906Z,1.80
2018-01-22T07:35:41.131Z,1.80
2018-01-22T07:38:09.395Z,1.70
2018-01-22T07:40:37.671Z,1.80
2018-01-22T07:43:05.996Z,1.90
2018-01-22T07:45:34.232Z,1.90
2018-01-22T07:48:02.474Z,1.90
2018-01-22T07:50:31.940Z,1.90
2018-01-22T07:53:00.221Z,1.90
2018-01-22T07:55:28.530Z,2.00
2018-01-22T07:57:56.763Z,2.00
2018-01-22T08:00:25.009Z,1.90
2018-01-22T08:02:53.287Z,2.00
2018-01-22T08:05:22.338Z,2.10
2018-01-22T08:07:50.658Z,2.10
2018-01-22T08:10:19.657Z,2.20
2018-01-22T08:12:47.905Z,2.20
2018-01-22T08:15:16.972Z,2.40
2018-01-22T08:17:45.208Z,2.40
2018-01-22T08:20:13.572Z,2.40
2018-01-22T08:22:42.605Z,2.50
2018-01-22T08:25:10.843Z,2.50
2018-01-22T08:27:39.900Z,2.40
2018-01-22T08:30:08.192Z,2.40
2018-01-22T08:32:36.764Z,2.30
2018-01-22T08:35:05.828Z,2.30
2018-01-22T08:37:34.058Z,2.30
2018-01-22T08:40:03.198Z,2.30
2018-01-22T08:42:31.424Z,2.40
2018-01-22T08:44:59.712Z,2.40
2018-01-22T08:47:28.760Z,2.60
2018-01-22T08:49:56.998Z,2.50
2018-01-22T08:52:26.012Z,2.60
2018-01-22T08:54:54.256Z,2.70
2018-01-22T08:57:23.285Z,2.60
2018-01-22T08:59:51.542Z,2.60
2018-01-22T09:02:20.602Z,2.60
2018-01-22T09:04:48.918Z,2.60
2018-01-22T09:07:17.905Z,2.70
2018-01-22T09:09:47.694Z,2.80
2018-01-22T09:12:16.045Z,2.70
2018-01-22T09:14:44.400Z,2.80
2018-01-22T09:17:12.680Z,2.80
2018-01-22T09:19:40.908Z,2.90
2018-01-22T09:22:09.944Z,3.00
2018-01-22T09:24:38.191Z,3.00
2018-01-22T09:27:08.071Z,3.10
2018-01-22T09:29:36.304Z,3.10
2018-01-22T09:32:04.542Z,3.20
2018-01-22T09:34:32.852Z,3.20
2018-01-22T09:37:01.882Z,3.20
2018-01-22T09:39:30.160Z,3.20
2018-01-22T09:41:58.444Z,3.20
2018-01-22T09:44:26.749Z,3.20
2018-01-22T09:46:54.975Z,3.20
2018-01-22T09:49:23.212Z,3.20
2018-01-22T09:51:52.278Z,3.30
2018-01-22T09:54:20.539Z,3.20
2018-01-22T09:56:48.873Z,3.20
2018-01-22T09:59:17.912Z,3.00
2018-01-22T10:01:46.185Z,3.00
2018-01-22T10:04:14.428Z,3.00
2018-01-22T10:06:42.702Z,2.90
2018-01-22T10:09:11.013Z,2.90
2018-01-22T10:11:39.244Z,2.90
2018-01-22T10:14:08.263Z,2.90
2018-01-22T10:16:36.564Z,2.90
2018-01-22T10:19:04.796Z,2.80
2018-01-22T10:21:33.814Z,2.90
2018-01-22T10:24:02.108Z,2.90
2018-01-22T10:26:30.368Z,3.00
2018-01-22T10:28:58.617Z,3.10
2018-01-22T10:31:27.672Z,3.00
2018-01-22T10:33:56.722Z,3.10
2018-01-22T10:36:25.718Z,3.20
2018-01-22T10:38:54.043Z,3.20
2018-01-22T10:41:22.316Z,3.20
2018-01-22T10:43:50.570Z,3.30
2018-01-22T10:46:18.804Z,3.20
2018-01-22T10:48:47.812Z,3.40
2018-01-22T10:51:16.844Z,3.40
2018-01-22T10:53:45.134Z,3.30
2018-01-22T10:56:14.179Z,3.40
2018-01-22T10:58:43.197Z,3.50
2018-01-22T11:01:11.426Z,3.40
2018-01-22T11:03:39.705Z,3.50
2018-01-22T11:06:07.979Z,3.50
2018-01-22T11:08:36.220Z,3.50
2018-01-22T11:11:04.472Z,3.60
2018-01-22T11:13:32.757Z,3.60
2018-01-22T11:16:11.719Z,3.70
2018-01-22T11:18:39.953Z,3.70
2018-01-22T11:21:08.227Z,3.60
2018-01-22T11:23:36.481Z,3.60
2018-01-22T11:26:05.532Z,3.70
2018-01-22T11:28:33.820Z,3.70
2018-01-22T11:31:02.065Z,3.70
2018-01-22T11:33:30.348Z,3.80
2018-01-22T11:35:58.635Z,3.90
2018-01-22T11:38:26.890Z,3.90
2018-01-22T11:40:55.202Z,3.80
2018-01-22T11:43:23.486Z,3.80
2018-01-22T11:45:51.733Z,3.80
2018-01-22T11:48:20.233Z,3.80
2018-01-22T11:50:48.523Z,3.80
2018-01-22T11:53:16.847Z,3.80
2018-01-22T11:55:45.071Z,3.80
2018-01-22T11:58:13.337Z,3.90
2018-01-22T12:00:41.571Z,4.00
2018-01-22T12:03:10.636Z,4.10
2018-01-22T12:05:38.889Z,4.10
2018-01-22T12:08:07.130Z,4.10
2018-01-22T12:10:35.480Z,4.10
2018-01-22T12:13:03.708Z,4.20
2018-01-22T12:15:32.212Z,4.30
2018-01-22T12:18:00.462Z,4.30
2018-01-22T12:20:28.746Z,4.40
2018-01-22T12:22:57.040Z,4.40
2018-01-22T12:25:25.397Z,4.50
2018-01-22T12:27:53.699Z,4.50
2018-01-22T12:30:21.976Z,4.50
2018-01-22T12:32:50.303Z,4.60
2018-01-22T12:35:18.757Z,4.60
2018-01-22T12:37:46.983Z,4.60
2018-01-22T12:40:15.289Z,4.50
2018-01-22T12:42:43.537Z,4.50
2018-01-22T12:45:11.872Z,4.50
2018-01-22T12:47:40.149Z,4.50
2018-01-22T12:50:08.434Z,4.50
2018-01-22T12:52:37.458Z,4.50
2018-01-22T12:55:06.749Z,4.50
2018-01-22T12:57:35.048Z,4.50
2018-01-22T13:00:03.306Z,4.60
2018-01-22T13:02:31.618Z,4.60
2018-01-22T13:04:59.889Z,4.60
2018-01-22T13:07:28.117Z,4.60
2018-01-22T13:09:57.205Z,4.60
2018-01-22T13:12:25.474Z,4.60
2018-01-22T13:14:53.742Z,4.50
2018-01-22T13:17:21.967Z,4.60
2018-01-22T13:19:50.275Z,4.60
2018-01-22T13:22:18.540Z,4.60
2018-01-22T13:24:46.827Z,4.70
2018-01-22T13:27:15.143Z,4.70
2018-01-22T13:29:43.725Z,4.80
2018-01-22T13:32:12.041Z,4.70
2018-01-22T13:34:40.319Z,4.80
2018-01-22T13:37:08.639Z,4.80
2018-01-22T13:39:36.935Z,4.80
2018-01-22T13:42:05.214Z,4.80
2018-01-22T13:44:33.514Z,4.90
2018-01-22T13:47:01.796Z,4.90
2018-01-22T13:49:30.067Z,5.00
2018-01-22T13:51:58.310Z,5.00
2018-01-22T13:54:26.594Z,4.90
2018-01-22T13:56:54.892Z,4.90
2018-01-22T13:59:23.957Z,4.90
2018-01-22T14:01:52.240Z,4.90
2018-01-22T14:04:20.527Z,5.00
2018-01-22T14:06:48.809Z,4.90
2018-01-22T14:09:17.859Z,4.90
2018-01-22T14:11:46.124Z,4.90
2018-01-22T14:14:14.384Z,4.90
2018-01-22T14:16:42.654Z,4.90
2018-01-22T14:19:11.743Z,4.90
2018-01-22T14:21:40.790Z,4.90
2018-01-22T14:24:09.876Z,4.90
2018-01-22T14:26:38.152Z,4.90
2018-01-22T14:29:06.392Z,4.90
2018-01-22T14:31:35.454Z,4.90
2018-01-22T14:34:03.683Z,4.90
2018-01-22T14:36:31.982Z,4.90
2018-01-22T14:39:00.268Z,4.90
2018-01-22T14:41:28.492Z,4.90
2018-01-22T14:43:56.801Z,4.90
2018-01-22T14:46:25.021Z,4.80
2018-01-22T14:48:54.114Z,4.80
2018-01-22T14:51:22.411Z,4.80
2018-01-22T14:53:51.417Z,4.80
2018-01-22T14:56:19.747Z,4.80
2018-01-22T14:58:48.010Z,4.80
2018-01-22T15:01:16.313Z,4.80
2018-01-22T15:03:44.565Z,4.80
2018-01-22T15:06:12.849Z,4.80
2018-01-22T15:08:41.138Z,4.80
2018-01-22T15:11:09.410Z,4.80
2018-01-22T15:13:37.667Z,4.80
2018-01-22T15:16:05.909Z,4.80
2018-01-22T15:18:34.160Z,4.80
2018-01-22T15:21:03.180Z,4.70
2018-01-22T15:23:32.243Z,4.70
2018-01-22T15:26:00.572Z,4.70
2018-01-22T15:28:28.846Z,4.70
2018-01-22T15:30:57.096Z,4.70
2018-01-22T15:33:26.152Z,4.70
2018-01-22T15:35:54.451Z,4.60
2018-01-22T15:38:22.732Z,4.60
2018-01-22T15:40:51.004Z,4.70
2018-01-22T15:43:19.308Z,4.60
2018-01-22T15:45:48.352Z,4.60
2018-01-22T15:48:16.619Z,4.60
2018-01-22T15:50:44.930Z,4.60
2018-01-22T15:53:13.197Z,4.60
2018-01-22T15:55:41.485Z,4.60
2018-01-22T15:58:09.761Z,4.60
2018-01-22T16:00:38.047Z,4.60
2018-01-22T16:03:06.293Z,4.60
2018-01-22T16:05:34.603Z,4.60
2018-01-22T16:08:02.852Z,4.60
2018-01-22T16:10:31.175Z,4.60
2018-01-22T16:13:00.180Z,4.60
2018-01-22T16:15:28.431Z,4.60
2018-01-22T16:17:57.456Z,4.50
2018-01-22T16:20:26.664Z,4.50
2018-01-22T16:22:54.922Z,4.50
2018-01-22T16:25:23.530Z,4.50
2018-01-22T16:27:51.759Z,4.50
2018-01-22T16:30:21.638Z,4.50
2018-01-22T16:32:49.895Z,4.40
2018-01-22T16:35:18.165Z,4.40
2018-01-22T16:37:46.410Z,4.40
2018-01-22T16:40:15.475Z,4.40
2018-01-22T16:42:43.729Z,4.50
2018-01-22T16:45:12.008Z,4.50
2018-01-22T16:47:45.931Z,4.50
2018-01-22T16:50:14.169Z,4.50
2018-01-22T16:52:42.429Z,4.50
2018-01-22T16:55:11.602Z,4.60
2018-01-22T16:57:39.842Z,4.50
2018-01-22T17:00:08.196Z,4.50
2018-01-22T17:02:38.001Z,4.60
2018-01-22T17:05:06.291Z,4.50
2018-01-22T17:07:34.567Z,4.60
2018-01-22T17:10:02.874Z,4.60
2018-01-22T17:12:31.160Z,4.70
2018-01-22T17:14:59.450Z,4.70
2018-01-22T17:17:27.681Z,4.70
2018-01-22T17:19:55.968Z,4.70
2018-01-22T17:22:24.224Z,4.80
2018-01-22T17:24:52.550Z,4.70
2018-01-22T17:27:20.831Z,4.80
2018-01-22T17:29:49.113Z,4.80
2018-01-22T17:32:17.355Z,4.80
2018-01-22T17:34:45.642Z,4.70
2018-01-22T17:37:13.920Z,4.80
2018-01-22T17:39:42.176Z,4.80
2018-01-22T17:42:10.482Z,4.90
2018-01-22T17:44:38.721Z,4.90
2018-01-22T17:47:06.970Z,4.90
2018-01-22T17:49:36.048Z,4.90
2018-01-22T17:52:04.281Z,4.90
2018-01-22T17:54:32.583Z,4.90
2018-01-22T17:57:01.586Z,4.90
2018-01-22T17:59:29.857Z,4.90
2018-01-22T18:01:58.153Z,4.90
2018-01-22T18:04:27.203Z,4.90
2018-01-22T18:06:56.163Z,4.80
2018-01-22T18:09:25.214Z,4.90
2018-01-22T18:11:53.594Z,4.90
2018-01-22T18:14:21.871Z,5.00
2018-01-22T18:16:50.110Z,4.90
2018-01-22T18:19:18.384Z,5.00
2018-01-22T18:21:47.392Z,5.00
2018-01-22T18:24:15.663Z,5.00
2018-01-22T18:26:43.946Z,5.00
2018-01-22T18:29:13.100Z,5.00
2018-01-22T18:31:41.406Z,5.00
2018-01-22T18:34:10.439Z,5.00
2018-01-22T18:36:38.680Z,5.00
2018-01-22T18:39:06.977Z,5.00
2018-01-22T18:41:35.291Z,5.00
2018-01-22T18:44:03.581Z,5.00
2018-01-22T18:46:31.828Z,5.00
2018-01-22T18:49:00.092Z,5.00
2018-01-22T18:51:28.357Z,5.00
2018-01-22T18:53:56.727Z,5.00
2018-01-22T18:56:26.035Z,5.00
2018-01-22T18:58:54.322Z,5.00
2018-01-22T19:01:22.587Z,5.00
2018-01-22T19:03:50.904Z,5.00
2018-01-22T19:06:19.193Z,5.00
2018-01-22T19:08:47.480Z,5.00
2018-01-22T19:11:15.776Z,5.00
2018-01-22T19:13:44.815Z,5.10
2018-01-22T19:16:13.181Z,5.00
2018-01-22T19:18:41.505Z,5.10
2018-01-22T19:21:09.802Z,5.10
2018-01-22T19:23:38.833Z,5.00
2018-01-22T19:26:07.082Z,5.00
2018-01-22T19:28:35.377Z,5.00
2018-01-22T19:31:03.671Z,5.00
2018-01-22T19:33:31.943Z,5.00
2018-01-22T19:36:00.178Z,5.00
2018-01-22T19:38:29.283Z,5.00
2018-01-22T19:40:57.480Z,5.00
2018-01-22T19:43:25.823Z,5.00
2018-01-22T19:45:55.108Z,5.00
2018-01-22T19:48:23.368Z,5.00
2018-01-22T19:50:51.706Z,5.00
2018-01-22T19:53:21.657Z,5.00
2018-01-22T19:55:50.785Z,5.00
2018-01-22T19:58:19.049Z,5.00
2018-01-22T20:00:47.355Z,5.00
2018-01-22T20:03:16.362Z,4.90
2018-01-22T20:05:45.427Z,4.90
2018-01-22T20:08:13.666Z,4.90
2018-01-22T20:10:41.928Z,4.90
2018-01-22T20:13:10.215Z,4.90
2018-01-22T20:15:38.460Z,4.90
2018-01-22T20:18:07.476Z,4.80
2018-01-22T20:20:35.784Z,4.80
2018-01-22T20:23:04.136Z,4.80
2018-01-22T20:25:32.498Z,4.80
2018-01-22T20:28:00.790Z,4.80
2018-01-22T20:30:29.080Z,4.80
2018-01-22T20:32:57.363Z,4.70
2018-01-22T20:35:25.603Z,4.70
2018-01-22T20:37:54.708Z,4.70
2018-01-22T20:40:22.953Z,4.70
2018-01-22T20:42:52.051Z,4.80
2018-01-22T20:45:20.330Z,4.70
2018-01-22T20:47:48.665Z,4.70
2018-01-22T20:50:16.977Z,4.80
2018-01-22T20:52:45.270Z,4.80
2018-01-22T20:55:13.572Z,4.70
2018-01-22T20:57:41.863Z,4.70
2018-01-22T21:00:10.124Z,4.60
2018-01-22T21:02:38.440Z,4.70
2018-01-22T21:05:06.800Z,4.60
2018-01-22T21:07:35.136Z,4.60
2018-01-22T21:10:04.145Z,4.60
2018-01-22T21:12:34.044Z,4.60
2018-01-22T21:15:02.365Z,4.60
2018-01-22T21:17:30.629Z,4.50
2018-01-22T21:19:58.938Z,4.50
2018-01-22T21:22:27.259Z,4.50
2018-01-22T21:24:56.290Z,4.50
2018-01-22T21:27:25.279Z,4.50
2018-01-22T21:29:53.576Z,4.50
2018-01-22T21:32:21.851Z,4.50
2018-01-22T21:34:50.154Z,4.50
2018-01-22T21:37:18.450Z,4.50
2018-01-22T21:39:46.676Z,4.50
2018-01-22T21:42:14.989Z,4.40
2018-01-22T21:44:43.266Z,4.40
2018-01-22T21:47:11.550Z,4.40
2018-01-22T21:49:39.817Z,4.50
2018-01-22T21:52:08.144Z,4.40
2018-01-22T21:54:37.336Z,4.40
2018-01-22T21:57:06.391Z,4.30
2018-01-22T21:59:34.644Z,4.30
2018-01-22T22:02:02.929Z,4.30
2018-01-22T22:04:31.264Z,4.30
2018-01-22T22:07:01.175Z,4.40
2018-01-22T22:09:30.224Z,4.40
2018-01-22T22:11:58.472Z,4.30
2018-01-22T22:14:26.760Z,4.30
2018-01-22T22:16:55.039Z,4.30
2018-01-22T22:19:23.315Z,4.30
2018-01-22T22:21:51.590Z,4.30
2018-01-22T22:24:19.837Z,4.40
2018-01-22T22:26:48.144Z,4.40
2018-01-22T22:29:16.392Z,4.50
2018-01-22T22:31:44.681Z,4.50
2018-01-22T22:34:12.994Z,4.60
2018-01-22T22:36:41.270Z,4.70
2018-01-22T22:39:09.561Z,4.70
2018-01-22T22:41:37.799Z,4.80
2018-01-22T22:44:06.042Z,4.90
2018-01-22T22:46:35.064Z,5.00
2018-01-22T22:49:03.358Z,5.00
2018-01-22T22:51:31.612Z,5.00
2018-01-22T22:53:59.862Z,5.10
2018-01-22T22:56:28.955Z,5.20
2018-01-22T22:58:57.985Z,5.20
2018-01-22T23:01:26.281Z,5.20
2018-01-22T23:03:54.532Z,5.30
2018-01-22T23:06:22.777Z,5.30
2018-01-22T23:08:51.871Z,5.40
2018-01-22T23:11:20.129Z,5.40
2018-01-22T23:13:48.425Z,5.50
2018-01-22T23:16:16.664Z,5.50
2018-01-22T23:18:44.911Z,5.60
2018-01-22T23:21:13.212Z,5.60
2018-01-22T23:23:41.511Z,5.70
2018-01-22T23:26:09.781Z,5.70
2018-01-22T23:28:38.037Z,5.80
2018-01-22T23:31:06.328Z,5.80
2018-01-22T23:33:34.619Z,5.80
2018-01-22T23:36:02.918Z,5.80
2018-01-22T23:38:31.228Z,5.90
2018-01-22T23:40:59.519Z,5.90
2018-01-22T23:43:27.809Z,6.00
2018-01-22T23:45:56.081Z,6.00
2018-01-22T23:48:24.379Z,6.00
2018-01-22T23:50:52.671Z,6.00
2018-01-22T23:53:20.944Z,6.00
2018-01-22T23:55:49.247Z,6.00
2018-01-22T23:58:18.247Z,6.10
